Time;durP1;ratioP1;P1;durP2;ratioP2;P2;SDS_P1;SDS_P2;PMS_P1;PMS_P2;Temp;Humidity;BMP_temperature;BMP_pressure;BME280_temperature;BME280_humidity;BME280_pressure;Samples;Min_cycle;Max_cycle;Signal;HPM_P1;HPM_P2
2023/01/04 00:01:34;;;;;;;1632.47;270.00;;;5.70;99.90;;;;;;5047833;28;20236;-51
2023/01/04 00:04:02;;;;;;;1565.63;287.93;;;5.70;99.90;;;;;;5047703;28;20213;-51
2023/01/04 00:06:31;;;;;;;452.17;80.40;;;5.70;99.90;;;;;;5047901;28;20233;-49
2023/01/04 00:08:59;;;;;;;1035.47;217.80;;;5.70;99.90;;;;;;5048441;28;20220;-51
2023/01/04 00:11:27;;;;;;;589.40;91.10;;;5.70;99.90;;;;;;5048346;28;20271;-50
2023/01/04 00:13:59;;;;;;;1999.90;384.67;;;5.80;99.90;;;;;;5049167;28;20257;-51
2023/01/04 00:16:28;;;;;;;1123.07;188.37;;;5.70;99.90;;;;;;5052867;28;20220;-51
2023/01/04 00:18:57;;;;;;;1924.37;328.00;;;5.70;99.90;;;;;;5052327;28;20262;-51
2023/01/04 00:21:27;;;;;;;1501.60;205.10;;;5.70;99.90;;;;;;5052905;28;20213;-51
2023/01/04 00:23:57;;;;;;;506.27;96.33;;;5.70;99.90;;;;;;5052569;28;20208;-50
2023/01/04 00:26:27;;;;;;;1999.90;482.73;;;5.70;99.90;;;;;;5051641;28;20321;-50
2023/01/04 00:28:57;;;;;;;481.40;89.23;;;5.70;99.90;;;;;;5052037;28;20237;-50
2023/01/04 00:31:27;;;;;;;1135.33;251.67;;;5.70;99.90;;;;;;5052204;28;20240;-50
2023/01/04 00:33:57;;;;;;;1999.90;302.33;;;5.70;99.90;;;;;;5051906;28;20728;-50
2023/01/04 00:36:26;;;;;;;1451.63;229.30;;;5.70;99.90;;;;;;5051649;28;20255;-49
2023/01/04 00:39:06;;;;;;;1999.90;391.47;;;5.70;99.90;;;;;;5052474;28;20247;-50
2023/01/04 00:41:38;;;;;;;1999.90;421.07;;;5.70;99.90;;;;;;5052676;28;20202;-50
2023/01/04 00:44:27;;;;;;;1999.90;331.73;;;5.60;99.90;;;;;;5052167;28;20208;-50
2023/01/04 00:46:56;;;;;;;1999.90;498.90;;;5.70;99.90;;;;;;5052399;28;20263;-51
2023/01/04 00:49:24;;;;;;;1999.90;333.43;;;5.70;99.90;;;;;;5052210;28;20213;-50
2023/01/04 00:51:53;;;;;;;652.77;115.87;;;5.80;99.90;;;;;;5052093;28;20214;-50
2023/01/04 00:54:21;;;;;;;1345.73;219.53;;;5.80;99.90;;;;;;5052067;28;20979;-51
2023/01/04 00:56:50;;;;;;;1861.63;313.27;;;5.80;99.90;;;;;;5051212;28;20251;-50
2023/01/04 00:59:20;;;;;;;1999.90;494.03;;;5.90;99.90;;;;;;5051963;28;20213;-51
2023/01/04 01:01:50;;;;;;;1999.90;337.23;;;5.90;99.90;;;;;;5037922;28;20204;-49
2023/01/04 01:04:21;;;;;;;1961.80;326.73;;;5.90;99.90;;;;;;5052067;28;20205;-50
2023/01/04 01:06:50;;;;;;;1999.90;612.13;;;5.90;99.90;;;;;;5051914;28;20233;-51
2023/01/04 01:09:21;;;;;;;1999.90;457.93;;;5.90;99.90;;;;;;5051742;28;20300;-50
2023/01/04 01:11:50;;;;;;;1999.90;338.20;;;5.90;99.90;;;;;;5049853;28;20212;-50
2023/01/04 01:14:21;;;;;;;1999.90;400.27;;;5.90;99.90;;;;;;5051034;28;20677;-50
2023/01/04 01:16:50;;;;;;;1999.90;631.93;;;5.90;99.90;;;;;;5050621;28;20228;-50
2023/01/04 01:19:24;;;;;;;1999.90;673.20;;;5.90;99.90;;;;;;5051960;28;20609;-51
2023/01/04 01:21:53;;;;;;;1999.90;644.73;;;5.90;99.90;;;;;;5051040;28;20252;-51
2023/01/04 01:24:21;;;;;;;1999.90;556.47;;;5.90;99.90;;;;;;5044439;28;20279;-50
2023/01/04 01:26:49;;;;;;;1999.90;336.97;;;5.90;99.90;;;;;;5050823;28;20718;-51
2023/01/04 01:29:17;;;;;;;1997.60;354.60;;;5.90;99.90;;;;;;5036732;28;20240;-50
2023/01/04 01:31:45;;;;;;;1999.90;737.67;;;6.00;99.90;;;;;;5049638;28;20738;-51
2023/01/04 01:34:14;;;;;;;1184.53;199.67;;;6.00;99.90;;;;;;5050027;28;20259;-50
2023/01/04 01:36:43;;;;;;;1999.90;442.33;;;6.00;99.90;;;;;;5050294;28;20741;-51
2023/01/04 01:39:11;;;;;;;1999.90;592.50;;;6.00;99.90;;;;;;5050229;28;20215;-50
2023/01/04 01:41:39;;;;;;;819.83;141.50;;;5.90;99.90;;;;;;5051077;28;20264;-51
2023/01/04 01:44:45;;;;;;;1999.90;560.97;;;6.00;99.90;;;;;;5050877;28;20211;-50
2023/01/04 01:47:15;;;;;;;1999.90;493.23;;;6.00;99.90;;;;;;5050805;28;20671;-50
2023/01/04 01:49:46;;;;;;;1022.13;226.30;;;6.00;99.90;;;;;;5050824;28;20244;-51
2023/01/04 01:52:18;;;;;;;1983.13;322.63;;;6.00;99.90;;;;;;5050373;28;20273;-51
2023/01/04 01:54:49;;;;;;;1999.90;350.07;;;6.00;99.90;;;;;;5050743;28;20277;-51
2023/01/04 01:57:22;;;;;;;496.43;97.07;;;6.00;99.90;;;;;;5050767;28;20753;-50
2023/01/04 01:59:52;;;;;;;954.50;161.13;;;5.90;99.90;;;;;;5051119;28;20614;-51
2023/01/04 02:02:21;;;;;;;1891.50;307.33;;;5.90;99.90;;;;;;5049925;28;20244;-50
2023/01/04 02:04:51;;;;;;;1638.93;298.87;;;5.90;99.90;;;;;;5048647;28;20200;-51
2023/01/04 02:07:23;;;;;;;202.67;47.97;;;5.90;99.90;;;;;;5050218;28;20317;-51
2023/01/04 02:09:52;;;;;;;183.63;51.20;;;5.90;99.90;;;;;;5049781;28;20215;-50
2023/01/04 02:12:20;;;;;;;1389.67;276.70;;;6.00;99.90;;;;;;5050504;28;20225;-50
2023/01/04 02:14:50;;;;;;;311.87;65.83;;;6.00;99.90;;;;;;5050591;28;20218;-51
2023/01/04 02:17:31;;;;;;;1999.90;366.63;;;6.00;99.90;;;;;;5050229;28;20336;-51
2023/01/04 02:20:34;;;;;;;1001.07;200.53;;;5.90;99.90;;;;;;5050465;28;20238;-50
2023/01/04 02:23:53;;;;;;;400.87;104.60;;;5.90;99.90;;;;;;5049894;28;20754;-50
2023/01/04 02:26:51;;;;;;;886.43;141.77;;;5.90;99.90;;;;;;5050178;28;20232;-51
2023/01/04 02:29:51;;;;;;;1197.40;178.53;;;5.90;99.90;;;;;;5050320;28;20240;-51
2023/01/04 02:32:33;;;;;;;1784.97;256.07;;;5.90;99.90;;;;;;5037140;28;20259;-50
2023/01/04 02:35:11;;;;;;;1293.43;196.30;;;5.90;99.90;;;;;;5050136;28;20787;-50
2023/01/04 02:37:46;;;;;;;1472.57;270.07;;;5.90;99.90;;;;;;5049442;28;20212;-50
2023/01/04 02:40:20;;;;;;;903.73;143.30;;;5.80;99.90;;;;;;5049706;28;20303;-51
2023/01/04 02:45:48;;;;;;;1413.40;260.47;;;5.80;99.90;;;;;;5050015;28;20228;-50
2023/01/04 02:51:03;;;;;;;1672.00;271.57;;;5.90;99.90;;;;;;5050249;28;20236;-51
2023/01/04 02:53:37;;;;;;;1351.50;244.97;;;5.90;99.90;;;;;;5049352;28;20287;-51
2023/01/04 02:56:14;;;;;;;1999.90;563.77;;;5.90;99.90;;;;;;5049575;28;20320;-51
2023/01/04 02:58:55;;;;;;;806.80;203.63;;;5.90;99.90;;;;;;5049880;28;20243;-51
2023/01/04 03:07:27;;;;;;;1999.90;389.13;;;5.80;99.90;;;;;;5049520;28;20229;-50
2023/01/04 03:10:03;;;;;;;837.17;162.60;;;5.90;99.90;;;;;;5049370;28;20231;-50
2023/01/04 03:12:37;;;;;;;1999.90;526.43;;;5.90;99.90;;;;;;5049356;28;20262;-51
2023/01/04 03:15:13;;;;;;;1999.90;504.10;;;5.90;99.90;;;;;;5049459;28;20270;-50
2023/01/04 03:17:48;;;;;;;641.83;131.83;;;5.90;99.90;;;;;;5049388;28;20239;-51
2023/01/04 03:20:20;;;;;;;1982.93;321.70;;;6.00;99.90;;;;;;5049221;28;20240;-51
2023/01/04 03:37:07;;;;;;;1773.33;300.30;;;6.00;99.90;;;;;;5048307;28;20256;-51
2023/01/04 03:48:30;;;;;;;1999.90;616.90;;;6.00;99.90;;;;;;5049356;28;20244;-50
2023/01/04 03:51:08;;;;;;;1999.90;631.70;;;5.90;99.90;;;;;;5049066;28;20693;-51
2023/01/04 03:53:44;;;;;;;1999.90;578.17;;;5.90;99.90;;;;;;5048457;28;20669;-51
2023/01/04 03:56:14;;;;;;;872.07;147.73;;;6.00;99.90;;;;;;5049183;28;20730;-51
2023/01/04 03:58:42;;;;;;;1999.90;655.80;;;6.00;99.90;;;;;;5048927;28;20308;-51
2023/01/04 04:01:10;;;;;;;1999.90;643.93;;;6.00;99.90;;;;;;5048936;28;20221;-51
2023/01/04 04:09:11;;;;;;;1999.90;391.30;;;6.00;99.90;;;;;;5048480;28;20221;-51
2023/01/04 04:11:39;;;;;;;1999.90;569.83;;;5.90;99.90;;;;;;5048565;28;20212;-50
2023/01/04 04:14:07;;;;;;;1999.90;478.23;;;5.90;99.90;;;;;;5048794;28;20232;-50
2023/01/04 04:16:35;;;;;;;1213.83;217.90;;;5.90;99.90;;;;;;5034477;28;20604;-50
2023/01/04 04:19:04;;;;;;;1999.90;318.97;;;5.90;99.90;;;;;;5048554;28;20204;-51
2023/01/04 04:21:36;;;;;;;1556.47;241.00;;;5.90;99.90;;;;;;5048562;28;20811;-51
2023/01/04 04:24:05;;;;;;;1468.87;248.23;;;6.00;99.90;;;;;;5048273;28;20262;-50
2023/01/04 04:26:34;;;;;;;1999.90;431.87;;;5.90;99.90;;;;;;5048320;28;20226;-51
2023/01/04 04:29:02;;;;;;;1999.90;608.27;;;5.90;99.90;;;;;;5048752;28;20270;-51
2023/01/04 04:31:30;;;;;;;1999.90;439.63;;;5.90;99.90;;;;;;5048513;28;20209;-50
2023/01/04 04:33:59;;;;;;;1999.90;373.93;;;5.90;99.90;;;;;;5048639;28;20243;-51
2023/01/04 04:36:27;;;;;;;1999.90;319.00;;;5.90;99.90;;;;;;5047840;28;20302;-51
2023/01/04 04:38:55;;;;;;;1999.90;471.50;;;5.90;99.90;;;;;;5048827;28;20654;-50
2023/01/04 04:41:37;;;;;;;1999.90;473.83;;;5.90;99.90;;;;;;5047119;28;20205;-51
2023/01/04 04:44:07;;;;;;;1476.73;272.80;;;5.90;99.90;;;;;;5048397;28;20589;-50
2023/01/04 04:46:35;;;;;;;1999.90;321.40;;;5.90;99.90;;;;;;5048205;28;20267;-51
2023/01/04 04:49:04;;;;;;;1717.63;263.17;;;5.90;99.90;;;;;;5048252;28;20258;-51
2023/01/04 04:51:33;;;;;;;1731.50;296.30;;;6.00;99.90;;;;;;5048363;28;21025;-51
2023/01/04 04:54:01;;;;;;;1999.90;459.87;;;5.90;99.90;;;;;;5048235;28;20216;-51
2023/01/04 04:56:29;;;;;;;1717.13;248.03;;;6.00;99.90;;;;;;5048185;28;20313;-51
2023/01/04 04:58:57;;;;;;;858.83;147.80;;;6.00;99.90;;;;;;5048615;28;20261;-51
2023/01/04 05:01:27;;;;;;;1999.90;419.03;;;5.90;99.90;;;;;;5051951;28;20208;-50
2023/01/04 05:03:55;;;;;;;1999.90;289.60;;;6.00;99.90;;;;;;5051908;28;20244;-50
2023/01/04 05:06:23;;;;;;;568.67;90.13;;;5.90;99.90;;;;;;5051853;28;20745;-51
2023/01/04 05:08:51;;;;;;;775.60;117.17;;;5.90;99.90;;;;;;5051682;28;20249;-50
2023/01/04 05:12:58;;;;;;;1158.93;225.30;;;6.00;99.90;;;;;;5052046;28;20586;-51
2023/01/04 05:14:08;;;;;;;1999.90;506.93;;;6.00;99.90;;;;;;5051705;28;20209;-50
2023/01/04 05:16:37;;;;;;;705.47;165.27;;;6.00;99.90;;;;;;5051624;28;20229;-51
2023/01/04 05:19:05;;;;;;;1999.47;346.53;;;5.90;99.90;;;;;;5051862;28;20751;-50
2023/01/04 05:21:33;;;;;;;1999.90;334.93;;;6.00;99.90;;;;;;5051668;28;20300;-51
2023/01/04 05:24:02;;;;;;;1999.90;381.07;;;5.90;99.90;;;;;;5051014;28;20682;-51
2023/01/04 05:26:30;;;;;;;1986.00;307.97;;;6.00;99.90;;;;;;5051323;28;20222;-51
2023/01/04 05:28:58;;;;;;;503.87;135.57;;;6.00;99.90;;;;;;5051814;28;20562;-51
2023/01/04 05:31:25;;;;;;;1170.63;244.67;;;6.10;99.90;;;;;;5050218;28;20241;-50
2023/01/04 05:33:54;;;;;;;1999.90;491.30;;;6.10;99.90;;;;;;5047813;28;20209;-50
2023/01/04 05:36:23;;;;;;;1690.70;243.33;;;6.00;99.90;;;;;;5046014;28;20279;-51
2023/01/04 05:38:51;;;;;;;1999.90;385.90;;;6.00;99.90;;;;;;5048738;28;20217;-51
2023/01/04 05:44:04;;;;;;;1999.90;734.77;;;6.00;99.90;;;;;;5050846;28;20209;-50
2023/01/04 05:46:32;;;;;;;1999.90;456.37;;;5.90;99.90;;;;;;5050821;28;20289;-51
2023/01/04 05:49:02;;;;;;;1263.47;173.97;;;5.90;99.90;;;;;;5050883;28;20721;-51
2023/01/04 05:51:30;;;;;;;1999.90;532.27;;;6.00;99.90;;;;;;5039997;28;20213;-50
2023/01/04 05:53:58;;;;;;;863.73;187.83;;;6.00;99.90;;;;;;5050461;28;20255;-50
2023/01/04 05:56:26;;;;;;;1261.03;217.17;;;6.00;99.90;;;;;;5050668;28;20780;-51
2023/01/04 05:58:54;;;;;;;1999.90;609.63;;;6.00;99.90;;;;;;5050578;28;20217;-49
2023/01/04 06:01:22;;;;;;;945.00;169.63;;;6.00;99.90;;;;;;5050846;28;20300;-51
2023/01/04 06:03:50;;;;;;;1647.77;275.63;;;6.00;99.90;;;;;;5050326;28;20205;-51
2023/01/04 06:06:20;;;;;;;1685.53;272.90;;;6.00;99.90;;;;;;5050623;28;20677;-51
2023/01/04 06:08:48;;;;;;;1999.90;325.63;;;6.00;99.90;;;;;;5050222;28;20632;-51
2023/01/04 06:11:16;;;;;;;1543.60;254.50;;;6.00;99.90;;;;;;5049916;28;20205;-51
2023/01/04 06:13:50;;;;;;;1999.90;659.63;;;6.00;99.90;;;;;;5050437;28;20285;-51
2023/01/04 06:16:18;;;;;;;1999.90;672.77;;;6.00;99.90;;;;;;5050206;28;20256;-51
2023/01/04 06:18:47;;;;;;;1474.43;198.53;;;6.00;99.90;;;;;;5050818;28;20321;-51
2023/01/04 06:21:15;;;;;;;956.63;146.50;;;6.00;99.90;;;;;;5050523;28;20217;-50
2023/01/04 06:23:44;;;;;;;1999.90;396.73;;;6.10;99.90;;;;;;5050065;28;20212;-51
2023/01/04 06:26:12;;;;;;;1999.90;735.60;;;6.10;99.90;;;;;;5050257;28;20228;-51
2023/01/04 06:28:40;;;;;;;674.03;105.63;;;6.00;99.90;;;;;;5050382;28;20740;-49
2023/01/04 06:31:10;;;;;;;1999.90;421.67;;;6.00;99.90;;;;;;5050089;28;20216;-50
2023/01/04 06:33:38;;;;;;;1999.90;425.07;;;6.00;99.90;;;;;;5049379;28;20287;-51
2023/01/04 06:36:07;;;;;;;893.77;163.10;;;6.00;99.90;;;;;;5048136;28;20253;-49
2023/01/04 06:38:49;;;;;;;1781.63;260.17;;;6.10;99.90;;;;;;5050488;28;20224;-51
2023/01/04 06:41:17;;;;;;;1999.90;448.77;;;6.00;99.90;;;;;;5050260;28;20213;-51
2023/01/04 06:43:45;;;;;;;1826.03;233.30;;;6.00;99.90;;;;;;5049991;28;20257;-51
2023/01/04 06:46:13;;;;;;;1999.90;406.83;;;6.00;99.90;;;;;;5049757;28;20217;-50
2023/01/04 06:48:42;;;;;;;1999.90;418.80;;;6.00;99.90;;;;;;5049771;28;20300;-50
2023/01/04 06:51:10;;;;;;;1999.90;316.03;;;5.90;99.90;;;;;;5049467;28;20248;-49
2023/01/04 06:53:38;;;;;;;1950.87;305.73;;;6.00;99.90;;;;;;5049321;28;20247;-51
2023/01/04 06:56:08;;;;;;;1999.90;309.73;;;6.00;99.90;;;;;;5049330;28;20312;-52
2023/01/04 06:58:36;;;;;;;1734.53;285.87;;;6.00;99.90;;;;;;5049573;28;20212;-50
2023/01/04 07:01:05;;;;;;;1197.83;148.03;;;6.10;99.90;;;;;;5049407;28;20206;-50
2023/01/04 07:03:33;;;;;;;1753.83;300.47;;;6.10;99.90;;;;;;5041691;28;20299;-50
2023/01/04 07:06:05;;;;;;;1999.90;431.93;;;6.10;99.90;;;;;;5048871;28;20255;-51
2023/01/04 07:08:33;;;;;;;1999.90;408.57;;;6.10;99.90;;;;;;5045079;28;20219;-51
2023/01/04 07:11:02;;;;;;;1746.57;321.63;;;6.20;99.90;;;;;;5049665;28;20304;-50
2023/01/04 07:13:31;;;;;;;1142.30;168.67;;;6.30;99.90;;;;;;5048978;28;20631;-50
2023/01/04 07:15:59;;;;;;;1040.80;190.10;;;6.30;99.90;;;;;;5049051;28;20241;-50
2023/01/04 07:18:28;;;;;;;1999.90;418.90;;;6.20;99.90;;;;;;5049276;28;20292;-50
2023/01/04 07:20:56;;;;;;;1283.47;238.60;;;6.30;99.90;;;;;;5049254;28;20663;-50
2023/01/04 07:23:24;;;;;;;1436.00;237.73;;;6.30;99.90;;;;;;5048475;28;20204;-50
2023/01/04 07:25:52;;;;;;;1999.90;281.37;;;6.30;99.90;;;;;;5048399;28;20315;-50
2023/01/04 07:31:08;;;;;;;878.20;125.67;;;6.40;99.90;;;;;;5047583;28;20252;-51
2023/01/04 07:33:36;;;;;;;603.63;108.00;;;6.40;99.90;;;;;;5047978;28;20287;-51
2023/01/04 07:36:06;;;;;;;1999.90;406.63;;;6.40;99.90;;;;;;5048493;28;20286;-50
2023/01/04 07:38:34;;;;;;;1212.37;173.60;;;6.40;99.90;;;;;;5046393;28;20733;-50
2023/01/04 07:41:03;;;;;;;1247.87;196.37;;;6.50;99.90;;;;;;5047004;28;20290;-51
2023/01/04 07:43:31;;;;;;;1272.37;166.83;;;6.50;99.90;;;;;;5046837;28;20692;-51
2023/01/04 07:45:59;;;;;;;1999.90;401.53;;;6.50;99.90;;;;;;5046555;28;20338;-51
2023/01/04 07:48:29;;;;;;;1180.37;150.37;;;6.50;99.90;;;;;;5046681;28;20278;-51
2023/01/04 07:50:57;;;;;;;1999.90;589.77;;;6.50;99.90;;;;;;5046949;28;20289;-51
2023/01/04 07:53:25;;;;;;;1952.13;324.90;;;6.40;99.90;;;;;;5046681;28;20237;-50
2023/01/04 07:55:57;;;;;;;1957.97;263.37;;;6.40;99.90;;;;;;5046964;28;20277;-51
2023/01/04 07:58:26;;;;;;;504.23;95.70;;;6.50;99.90;;;;;;5048371;28;20213;-51
2023/01/04 08:00:54;;;;;;;1999.90;469.47;;;6.50;99.90;;;;;;5048472;28;20205;-50
2023/01/04 08:03:22;;;;;;;1999.90;706.90;;;6.40;99.90;;;;;;5048409;28;20667;-51
2023/01/04 08:05:52;;;;;;;1999.90;321.63;;;6.40;99.90;;;;;;5046935;28;20252;-51
2023/01/04 08:08:20;;;;;;;1999.90;396.53;;;6.40;99.90;;;;;;5048324;28;20212;-51
2023/01/04 08:10:48;;;;;;;1999.90;652.33;;;6.40;99.90;;;;;;5044839;28;20294;-51
2023/01/04 08:13:16;;;;;;;814.77;140.80;;;6.40;99.90;;;;;;5044799;28;20291;-50
2023/01/04 08:15:44;;;;;;;1999.90;366.57;;;6.50;99.90;;;;;;5047760;28;20276;-51
2023/01/04 08:18:12;;;;;;;1999.90;484.70;;;6.50;99.90;;;;;;5047440;28;20227;-50
2023/01/04 08:20:40;;;;;;;1999.90;564.77;;;6.50;99.90;;;;;;5043184;28;20220;-50
2023/01/04 08:23:09;;;;;;;1985.77;274.00;;;6.60;99.90;;;;;;5032031;28;20710;-51
2023/01/04 08:25:38;;;;;;;923.67;156.60;;;6.50;99.90;;;;;;5043586;28;20252;-50
2023/01/04 08:28:06;;;;;;;1903.83;352.87;;;6.50;99.90;;;;;;5045958;28;20280;-51
2023/01/04 08:30:34;;;;;;;1610.30;234.43;;;6.50;99.90;;;;;;5036795;28;20304;-51
2023/01/04 08:33:02;;;;;;;1999.90;428.53;;;6.60;99.90;;;;;;5042148;28;20240;-50
2023/01/04 08:35:30;;;;;;;1999.90;395.33;;;6.50;99.90;;;;;;5047637;28;20229;-50
2023/01/04 08:37:58;;;;;;;234.47;77.20;;;6.50;99.90;;;;;;5045300;28;20703;-50
2023/01/04 08:40:47;;;;;;;515.23;89.57;;;6.60;99.90;;;;;;5049162;28;20215;-50
2023/01/04 08:43:28;;;;;;;1996.70;321.70;;;6.60;99.90;;;;;;5044191;28;20237;-51
2023/01/04 08:45:56;;;;;;;1452.17;249.47;;;6.60;99.90;;;;;;5049028;28;20233;-50
2023/01/04 08:48:24;;;;;;;1999.90;409.97;;;6.60;99.90;;;;;;5045179;28;20209;-51
2023/01/04 08:50:53;;;;;;;1810.40;278.63;;;6.60;99.90;;;;;;5045823;28;20280;-50
2023/01/04 08:53:21;;;;;;;295.77;75.43;;;6.60;99.90;;;;;;5035340;28;20205;-50
2023/01/04 08:55:51;;;;;;;1459.90;211.27;;;6.70;99.90;;;;;;5033738;28;20279;-49
2023/01/04 08:58:19;;;;;;;769.20;128.30;;;6.70;99.90;;;;;;5049868;28;20229;-50
2023/01/04 09:00:47;;;;;;;1999.90;363.80;;;6.70;99.90;;;;;;5050518;28;20210;-50
2023/01/04 09:03:15;;;;;;;1914.33;270.87;;;6.70;99.90;;;;;;5049278;28;20305;-50
2023/01/04 09:05:45;;;;;;;1999.90;417.87;;;6.80;99.90;;;;;;5050026;28;20233;-50
2023/01/04 09:08:13;;;;;;;1324.30;200.70;;;6.80;99.90;;;;;;5049396;28;20296;-51
2023/01/04 09:10:41;;;;;;;1991.73;244.70;;;6.80;99.90;;;;;;5050158;28;20216;-50
2023/01/04 09:13:10;;;;;;;1999.90;342.43;;;6.80;99.90;;;;;;5049741;28;20209;-49
2023/01/04 09:15:38;;;;;;;1999.90;448.93;;;6.80;99.90;;;;;;5050882;28;20271;-51
2023/01/04 09:18:07;;;;;;;1794.67;219.40;;;6.70;99.90;;;;;;5032828;28;20225;-51
2023/01/04 09:20:55;;;;;;;1999.90;450.23;;;6.70;99.90;;;;;;5032353;28;20217;-51
2023/01/04 09:23:24;;;;;;;1421.30;224.07;;;6.70;99.90;;;;;;5034044;28;20206;-50
2023/01/04 09:25:52;;;;;;;1999.90;310.27;;;6.70;99.90;;;;;;5035736;28;20274;-51
2023/01/04 09:28:21;;;;;;;1751.27;319.30;;;6.70;99.90;;;;;;5035395;28;20206;-50
2023/01/04 09:30:49;;;;;;;1999.90;333.83;;;6.70;99.90;;;;;;5051370;28;20563;-51
2023/01/04 09:33:18;;;;;;;1999.90;430.50;;;6.70;99.90;;;;;;5050052;28;20288;-51
2023/01/04 09:35:46;;;;;;;1999.90;383.73;;;6.60;99.90;;;;;;5042192;28;20280;-50
2023/01/04 09:38:14;;;;;;;1279.33;196.40;;;6.60;99.90;;;;;;5031099;28;20838;-50
2023/01/04 09:40:53;;;;;;;1999.90;463.80;;;6.60;99.90;;;;;;5034148;28;20226;-50
2023/01/04 09:43:25;;;;;;;1999.90;529.00;;;6.60;99.90;;;;;;5045629;28;20212;-50
2023/01/04 09:45:57;;;;;;;1999.90;406.70;;;6.70;99.90;;;;;;5050939;28;20229;-51
2023/01/04 09:48:29;;;;;;;1999.90;559.03;;;6.70;99.90;;;;;;5051600;28;20236;-51
2023/01/04 09:51:00;;;;;;;1999.90;565.63;;;6.70;99.90;;;;;;5051140;28;20209;-50
2023/01/04 09:53:33;;;;;;;1935.10;299.20;;;6.70;99.90;;;;;;5050921;28;20209;-51
2023/01/04 09:56:09;;;;;;;1967.93;345.37;;;6.80;99.90;;;;;;5050633;28;20715;-50
2023/01/04 09:58:41;;;;;;;837.80;151.70;;;6.90;99.90;;;;;;5050884;28;20260;-51
2023/01/04 10:01:14;;;;;;;1238.80;160.30;;;6.90;99.90;;;;;;5049045;28;20213;-50
2023/01/04 10:03:51;;;;;;;1481.97;199.93;;;7.00;99.90;;;;;;5050739;28;20248;-50
2023/01/04 10:06:19;;;;;;;906.23;156.03;;;7.00;99.90;;;;;;5048397;28;20316;-50
2023/01/04 10:08:48;;;;;;;1514.00;229.63;;;7.00;99.90;;;;;;5050724;28;20206;-48
2023/01/04 10:11:39;;;;;;;1999.90;527.27;;;7.00;99.90;;;;;;5051214;28;20335;-51
2023/01/04 10:14:28;;;;;;;1173.47;205.90;;;7.00;99.90;;;;;;5036719;28;20275;-50
2023/01/04 10:17:10;;;;;;;720.23;112.33;;;7.00;99.90;;;;;;5049842;28;20345;-51
2023/01/04 10:20:15;;;;;;;1584.67;247.07;;;7.10;99.90;;;;;;5050550;28;20215;-51
2023/01/04 10:23:13;;;;;;;1999.90;313.03;;;7.10;99.90;;;;;;5046308;28;20672;-51
2023/01/04 10:25:48;;;;;;;1798.97;274.27;;;7.10;99.90;;;;;;5043496;28;20717;-50
2023/01/04 10:28:33;;;;;;;1999.90;415.37;;;7.20;99.90;;;;;;5029239;28;20252;-51
2023/01/04 10:31:10;;;;;;;1717.80;304.40;;;7.20;99.90;;;;;;5045254;28;20197;-51
2023/01/04 10:34:05;;;;;;;1999.90;449.73;;;7.20;99.90;;;;;;5042138;28;20642;-50
2023/01/04 10:36:33;;;;;;;1999.90;359.80;;;7.30;99.90;;;;;;5048692;28;20236;-51
2023/01/04 10:39:03;;;;;;;1770.27;255.33;;;7.30;99.90;;;;;;5048986;28;20320;-51
2023/01/04 10:41:38;;;;;;;1999.90;560.47;;;7.50;99.90;;;;;;5048963;28;20291;-51
2023/01/04 10:44:16;;;;;;;1524.10;216.17;;;7.40;99.90;;;;;;5048943;28;20198;-50
2023/01/04 10:46:52;;;;;;;1999.90;397.27;;;7.40;99.90;;;;;;5048859;28;20221;-52
2023/01/04 10:49:28;;;;;;;1999.90;361.83;;;7.50;99.90;;;;;;5049108;28;20259;-51
2023/01/04 10:51:59;;;;;;;1999.90;691.73;;;7.50;99.90;;;;;;5049981;28;20197;-50
2023/01/04 10:54:33;;;;;;;1999.90;654.43;;;7.60;99.90;;;;;;5049790;28;20263;-51
2023/01/04 10:57:10;;;;;;;1503.83;292.60;;;7.50;99.90;;;;;;5043617;28;20352;-51
2023/01/04 10:59:44;;;;;;;1519.03;199.27;;;7.60;99.90;;;;;;5041701;28;20373;-52
2023/01/04 11:02:21;;;;;;;1999.90;351.17;;;7.70;99.90;;;;;;5043700;28;20263;-51
2023/01/04 11:04:57;;;;;;;1968.20;262.50;;;7.70;99.90;;;;;;5042362;28;20236;-51
2023/01/04 11:07:31;;;;;;;1999.90;634.43;;;7.70;99.90;;;;;;5048678;28;20259;-51
2023/01/04 11:10:04;;;;;;;1999.90;628.27;;;7.70;99.90;;;;;;5042623;28;20283;-50
2023/01/04 11:12:32;;;;;;;1999.90;547.00;;;7.70;99.90;;;;;;5049064;28;20832;-51
2023/01/04 11:15:00;;;;;;;1999.90;480.30;;;7.70;99.90;;;;;;5049487;28;20255;-51
2023/01/04 11:17:31;;;;;;;1999.90;433.57;;;7.70;99.90;;;;;;5048940;28;20255;-51
2023/01/04 11:19:59;;;;;;;1999.90;500.13;;;7.80;99.90;;;;;;5049061;28;20230;-51
2023/01/04 11:22:34;;;;;;;1996.50;279.67;;;7.80;99.90;;;;;;5044001;28;20216;-50
2023/01/04 11:25:05;;;;;;;566.03;121.40;;;7.80;99.90;;;;;;5047272;28;20236;-51
2023/01/04 11:27:58;;;;;;;1999.90;524.80;;;7.80;99.90;;;;;;5046682;28;20217;-51
2023/01/04 11:30:37;;;;;;;1999.90;461.73;;;7.80;99.90;;;;;;5047064;28;20893;-52
2023/01/04 11:33:15;;;;;;;1999.90;398.40;;;7.80;99.90;;;;;;5046648;28;20233;-51
2023/01/04 11:35:47;;;;;;;1999.90;444.33;;;7.80;99.90;;;;;;5035901;28;20312;-52
2023/01/04 11:38:17;;;;;;;866.93;112.83;;;7.90;99.90;;;;;;5047696;28;20251;-51
2023/01/04 11:41:00;;;;;;;1999.90;547.83;;;7.80;99.90;;;;;;5048188;28;20219;-52
2023/01/04 11:43:31;;;;;;;1999.90;438.10;;;7.90;99.90;;;;;;5048524;28;20217;-51
2023/01/04 11:46:02;;;;;;;1999.90;553.10;;;8.00;99.90;;;;;;5041401;28;20698;-51
2023/01/04 11:48:41;;;;;;;1999.90;446.63;;;8.00;99.90;;;;;;5043434;28;20197;-50
2023/01/04 11:51:32;;;;;;;1999.90;495.53;;;8.00;99.90;;;;;;5048453;28;20698;-51
2023/01/04 11:54:03;;;;;;;1999.90;513.90;;;8.10;99.90;;;;;;5037121;28;20275;-51
2023/01/04 11:56:32;;;;;;;1999.90;485.07;;;8.10;99.90;;;;;;5037338;28;20234;-50
2023/01/04 11:59:13;;;;;;;1999.90;381.57;;;8.10;99.90;;;;;;5040882;28;20217;-52
2023/01/04 12:02:09;;;;;;;376.40;61.13;;;8.10;99.90;;;;;;5045710;28;20213;-52
2023/01/04 12:04:39;;;;;;;1936.87;368.87;;;8.20;99.90;;;;;;5047181;28;20603;-51
2023/01/04 12:07:16;;;;;;;1999.90;757.17;;;8.30;99.90;;;;;;5045898;28;20232;-51
2023/01/04 12:09:44;;;;;;;1999.90;458.43;;;8.20;99.90;;;;;;5047750;28;20248;-52
2023/01/04 12:12:13;;;;;;;1266.77;162.87;;;8.30;99.90;;;;;;5051232;28;20287;-52
2023/01/04 12:14:48;;;;;;;1999.90;466.70;;;8.30;99.90;;;;;;5051328;28;20201;-52
2023/01/04 12:17:22;;;;;;;1429.53;193.53;;;8.30;99.90;;;;;;5052552;28;20225;-51
2023/01/04 12:19:54;;;;;;;1999.90;582.33;;;8.40;99.90;;;;;;5052557;28;20217;-51
2023/01/04 12:22:26;;;;;;;1999.90;475.93;;;8.40;99.90;;;;;;5052585;28;20209;-51
2023/01/04 12:24:55;;;;;;;1909.27;254.43;;;8.40;99.90;;;;;;5051273;28;20643;-51
2023/01/04 12:27:27;;;;;;;1243.83;184.53;;;8.40;99.90;;;;;;5052021;28;20226;-51
2023/01/04 12:30:00;;;;;;;1999.90;571.63;;;8.40;99.90;;;;;;5046908;28;20207;-52
2023/01/04 12:32:40;;;;;;;1999.90;738.93;;;8.40;99.90;;;;;;5045148;28;20213;-52
2023/01/04 12:36:01;;;;;;;1999.90;696.70;;;8.50;99.90;;;;;;5046279;28;20898;-52
2023/01/04 12:38:59;;;;;;;1829.00;297.37;;;8.50;99.90;;;;;;5045815;28;20217;-52
2023/01/04 12:42:20;;;;;;;1999.90;475.73;;;8.50;99.90;;;;;;5020455;28;20205;-52
2023/01/04 12:45:18;;;;;;;1999.90;372.60;;;8.60;99.90;;;;;;5052021;28;20687;-51
2023/01/04 12:51:22;;;;;;;1999.90;388.73;;;8.70;99.90;;;;;;5052200;28;20755;-51
2023/01/04 12:54:04;;;;;;;1999.90;279.83;;;8.70;99.90;;;;;;5051307;28;20205;-51
2023/01/04 12:57:10;;;;;;;1999.90;466.63;;;8.70;99.90;;;;;;5052467;28;20314;-52
2023/01/04 12:59:39;;;;;;;1999.90;497.80;;;8.70;99.90;;;;;;5051235;28;20324;-51
2023/01/04 13:02:19;;;;;;;1999.90;438.20;;;8.70;99.90;;;;;;5052081;28;20203;-51
2023/01/04 13:04:49;;;;;;;1498.67;240.53;;;8.80;99.90;;;;;;5051459;28;20197;-51
2023/01/04 13:07:32;;;;;;;1999.90;659.50;;;8.80;99.90;;;;;;5052074;28;20257;-51
2023/01/04 13:10:18;;;;;;;1819.63;261.13;;;8.80;99.90;;;;;;5043963;28;20248;-51
2023/01/04 13:13:15;;;;;;;1999.90;673.07;;;8.90;99.90;;;;;;5051817;28;20213;-52
2023/01/04 13:15:53;;;;;;;1722.63;235.17;;;8.90;99.90;;;;;;5051105;28;20229;-51
2023/01/04 13:18:36;;;;;;;1999.90;381.13;;;9.00;99.90;;;;;;5051968;28;20206;-51
2023/01/04 13:21:11;;;;;;;1999.90;455.20;;;8.90;99.90;;;;;;5050988;28;20279;-51
2023/01/04 13:23:41;;;;;;;1999.90;307.23;;;8.90;99.90;;;;;;5037864;28;20213;-51
2023/01/04 13:26:33;;;;;;;1999.90;379.00;;;9.00;99.90;;;;;;5051292;28;20734;-51
2023/01/04 13:29:11;;;;;;;1999.90;420.23;;;9.00;99.90;;;;;;5040714;28;20246;-51